Arnaudville, Louisiana
Current Conditions -  °F | °C
As of 11:53 AM on Saturday 25 Oct 2014 (Local Time) from KLFT Reporting Station
Clear Clear  
Wind Chill: 24°   Ceiling: Unl
Heat Index: 24°   Visibility: 10mi
Dew Point: 11°   Wind: 0mph
Humidity: 43%   Direction: NA
Pressure: 30.17"   Gusts: NA
Location:  30.4°N, 91.93°W
Report Text: KLFT 251653Z 00000KT 10SM CLR 24/11 A3017 RMK AO2 SLP215 T02440111
Loading
Personal Weather Stations






























Interactive Weather Map
Tropical Storm Tracking
New forecast layout! Learn more

10-Day Weather Forecast

Advertisements
Track Severe Weather on mobile